sensor_id;sensor_type;location;lat;lon;timestamp;temperature;humidity
28532;DHT22;15738;44.860;10.066;2022-09-20T00:02:29;15.90;99.90
28532;DHT22;15738;44.860;10.066;2022-09-20T00:05:15;15.90;99.90
28532;DHT22;15738;44.860;10.066;2022-09-20T00:08:03;15.90;99.90
28532;DHT22;15738;44.860;10.066;2022-09-20T00:10:49;15.90;99.90
28532;DHT22;15738;44.860;10.066;2022-09-20T00:13:37;15.90;99.90
28532;DHT22;15738;44.860;10.066;2022-09-20T00:16:26;15.90;99.90
28532;DHT22;15738;44.860;10.066;2022-09-20T00:19:17;15.80;99.90
28532;DHT22;15738;44.860;10.066;2022-09-20T00:22:04;15.80;99.90
28532;DHT22;15738;44.860;10.066;2022-09-20T00:24:50;15.80;99.90
28532;DHT22;15738;44.860;10.066;2022-09-20T00:27:35;15.80;99.90
28532;DHT22;15738;44.860;10.066;2022-09-20T00:30:21;15.70;99.90
28532;DHT22;15738;44.860;10.066;2022-09-20T00:33:08;15.60;99.90
28532;DHT22;15738;44.860;10.066;2022-09-20T00:35:54;15.70;99.90
28532;DHT22;15738;44.860;10.066;2022-09-20T00:38:40;15.70;99.90
28532;DHT22;15738;44.860;10.066;2022-09-20T00:41:27;15.60;99.90
28532;DHT22;15738;44.860;10.066;2022-09-20T00:44:54;15.60;99.90
28532;DHT22;15738;44.860;10.066;2022-09-20T00:47:42;15.50;99.90
28532;DHT22;15738;44.860;10.066;2022-09-20T00:50:50;15.50;99.90
28532;DHT22;15738;44.860;10.066;2022-09-20T00:53:41;15.50;99.90
28532;DHT22;15738;44.860;10.066;2022-09-20T00:56:32;15.50;99.90
28532;DHT22;15738;44.860;10.066;2022-09-20T00:59:25;15.50;99.90
28532;DHT22;15738;44.860;10.066;2022-09-20T01:02:24;15.50;99.90
28532;DHT22;15738;44.860;10.066;2022-09-20T01:05:12;15.50;99.90
28532;DHT22;15738;44.860;10.066;2022-09-20T01:07:58;15.30;99.90
28532;DHT22;15738;44.860;10.066;2022-09-20T01:10:44;15.40;99.90
28532;DHT22;15738;44.860;10.066;2022-09-20T01:13:30;15.40;99.90
28532;DHT22;15738;44.860;10.066;2022-09-20T01:16:16;15.40;99.90
28532;DHT22;15738;44.860;10.066;2022-09-20T01:19:15;15.30;99.90
28532;DHT22;15738;44.860;10.066;2022-09-20T01:22:08;15.30;99.90
28532;DHT22;15738;44.860;10.066;2022-09-20T01:25:14;15.30;99.90
28532;DHT22;15738;44.860;10.066;2022-09-20T01:28:01;15.20;99.90
28532;DHT22;15738;44.860;10.066;2022-09-20T01:31:23;15.20;99.90
28532;DHT22;15738;44.860;10.066;2022-09-20T01:34:18;15.30;99.90
28532;DHT22;15738;44.860;10.066;2022-09-20T01:40:10;15.20;99.90
28532;DHT22;15738;44.860;10.066;2022-09-20T01:43:29;15.10;99.90
28532;DHT22;15738;44.860;10.066;2022-09-20T01:46:23;15.10;99.90
28532;DHT22;15738;44.860;10.066;2022-09-20T01:49:26;15.10;99.90
28532;DHT22;15738;44.860;10.066;2022-09-20T02:08:42;14.60;99.90
28532;DHT22;15738;44.860;10.066;2022-09-20T02:11:43;14.60;99.90
28532;DHT22;15738;44.860;10.066;2022-09-20T02:14:47;14.60;99.90
28532;DHT22;15738;44.860;10.066;2022-09-20T02:30:37;14.50;99.90
28532;DHT22;15738;44.860;10.066;2022-09-20T02:33:53;14.40;99.90
28532;DHT22;15738;44.860;10.066;2022-09-20T02:40:37;14.40;99.90
28532;DHT22;15738;44.860;10.066;2022-09-20T02:43:50;14.40;99.90
28532;DHT22;15738;44.860;10.066;2022-09-20T02:47:08;14.40;99.90
28532;DHT22;15738;44.860;10.066;2022-09-20T02:59:34;14.10;99.90
28532;DHT22;15738;44.860;10.066;2022-09-20T03:02:39;14.10;99.90
28532;DHT22;15738;44.860;10.066;2022-09-20T03:14:33;14.00;99.90
28532;DHT22;15738;44.860;10.066;2022-09-20T03:17:37;14.00;99.90
28532;DHT22;15738;44.860;10.066;2022-09-20T03:20:33;14.00;99.90
28532;DHT22;15738;44.860;10.066;2022-09-20T03:39:40;14.00;99.90
28532;DHT22;15738;44.860;10.066;2022-09-20T03:42:29;13.90;99.90
28532;DHT22;15738;44.860;10.066;2022-09-20T03:45:37;14.00;99.90
28532;DHT22;15738;44.860;10.066;2022-09-20T03:48:36;14.00;99.90
28532;DHT22;15738;44.860;10.066;2022-09-20T03:54:48;13.90;99.90
28532;DHT22;15738;44.860;10.066;2022-09-20T04:03:52;13.90;99.90
28532;DHT22;15738;44.860;10.066;2022-09-20T04:16:28;13.80;99.90
28532;DHT22;15738;44.860;10.066;2022-09-20T04:19:25;13.80;99.90
28532;DHT22;15738;44.860;10.066;2022-09-20T04:22:19;13.80;99.90
28532;DHT22;15738;44.860;10.066;2022-09-20T04:25:27;13.70;99.90
28532;DHT22;15738;44.860;10.066;2022-09-20T04:28:20;13.80;99.90
28532;DHT22;15738;44.860;10.066;2022-09-20T04:34:27;13.70;99.90
28532;DHT22;15738;44.860;10.066;2022-09-20T04:37:36;13.80;99.90
28532;DHT22;15738;44.860;10.066;2022-09-20T04:46:57;13.70;99.90
28532;DHT22;15738;44.860;10.066;2022-09-20T04:50:15;13.70;99.90
28532;DHT22;15738;44.860;10.066;2022-09-20T04:56:01;13.70;99.90
28532;DHT22;15738;44.860;10.066;2022-09-20T04:59:08;13.60;99.90
28532;DHT22;15738;44.860;10.066;2022-09-20T05:08:16;13.50;99.90
28532;DHT22;15738;44.860;10.066;2022-09-20T05:14:22;13.50;99.90
28532;DHT22;15738;44.860;10.066;2022-09-20T05:30:38;13.50;99.90
28532;DHT22;15738;44.860;10.066;2022-09-20T05:33:34;13.60;99.90
28532;DHT22;15738;44.860;10.066;2022-09-20T05:36:36;13.80;99.90
28532;DHT22;15738;44.860;10.066;2022-09-20T05:45:43;15.00;99.90
28532;DHT22;15738;44.860;10.066;2022-09-20T06:01:38;18.00;99.90
28532;DHT22;15738;44.860;10.066;2022-09-20T06:19:47;22.00;99.90
28532;DHT22;15738;44.860;10.066;2022-09-20T06:28:43;21.90;99.90
28532;DHT22;15738;44.860;10.066;2022-09-20T06:31:32;21.30;99.90
28532;DHT22;15738;44.860;10.066;2022-09-20T06:34:18;20.80;99.90
28532;DHT22;15738;44.860;10.066;2022-09-20T06:43:35;19.60;99.90
28532;DHT22;15738;44.860;10.066;2022-09-20T06:46:22;19.50;99.90
28532;DHT22;15738;44.860;10.066;2022-09-20T06:49:08;19.70;99.90
28532;DHT22;15738;44.860;10.066;2022-09-20T06:51:54;19.80;99.90
28532;DHT22;15738;44.860;10.066;2022-09-20T06:54:42;19.80;99.90
28532;DHT22;15738;44.860;10.066;2022-09-20T06:57:34;19.90;99.90
28532;DHT22;15738;44.860;10.066;2022-09-20T07:00:20;19.50;99.90
28532;DHT22;15738;44.860;10.066;2022-09-20T07:03:06;19.80;99.90
28532;DHT22;15738;44.860;10.066;2022-09-20T07:05:52;19.50;99.90
28532;DHT22;15738;44.860;10.066;2022-09-20T07:08:38;19.40;99.90
28532;DHT22;15738;44.860;10.066;2022-09-20T07:11:26;19.40;99.90
28532;DHT22;15738;44.860;10.066;2022-09-20T07:14:12;19.70;99.90
28532;DHT22;15738;44.860;10.066;2022-09-20T07:16:57;19.80;99.90
28532;DHT22;15738;44.860;10.066;2022-09-20T07:19:43;19.80;99.90
28532;DHT22;15738;44.860;10.066;2022-09-20T07:22:29;19.60;99.90
28532;DHT22;15738;44.860;10.066;2022-09-20T07:25:15;19.50;99.90
28532;DHT22;15738;44.860;10.066;2022-09-20T07:28:02;19.60;99.90
28532;DHT22;15738;44.860;10.066;2022-09-20T07:30:48;19.80;99.90
28532;DHT22;15738;44.860;10.066;2022-09-20T07:33:34;19.80;99.90
28532;DHT22;15738;44.860;10.066;2022-09-20T07:36:20;19.50;99.90
28532;DHT22;15738;44.860;10.066;2022-09-20T07:39:06;19.30;99.90
28532;DHT22;15738;44.860;10.066;2022-09-20T07:41:51;19.40;99.90
28532;DHT22;15738;44.860;10.066;2022-09-20T07:44:37;19.20;99.90
28532;DHT22;15738;44.860;10.066;2022-09-20T07:47:23;19.40;99.90
28532;DHT22;15738;44.860;10.066;2022-09-20T07:50:10;19.50;99.90
28532;DHT22;15738;44.860;10.066;2022-09-20T07:52:56;19.80;99.90
28532;DHT22;15738;44.860;10.066;2022-09-20T07:55:42;19.50;99.90
28532;DHT22;15738;44.860;10.066;2022-09-20T07:58:29;19.40;99.90
28532;DHT22;15738;44.860;10.066;2022-09-20T08:01:15;19.30;99.90
28532;DHT22;15738;44.860;10.066;2022-09-20T08:04:03;19.60;99.90
28532;DHT22;15738;44.860;10.066;2022-09-20T08:06:49;20.10;99.90
28532;DHT22;15738;44.860;10.066;2022-09-20T08:09:34;19.80;99.90
28532;DHT22;15738;44.860;10.066;2022-09-20T08:12:20;19.70;99.90
28532;DHT22;15738;44.860;10.066;2022-09-20T08:15:27;19.90;99.90
28532;DHT22;15738;44.860;10.066;2022-09-20T08:18:14;20.10;99.90
28532;DHT22;15738;44.860;10.066;2022-09-20T08:21:03;20.50;99.90
28532;DHT22;15738;44.860;10.066;2022-09-20T08:23:50;20.60;99.90
28532;DHT22;15738;44.860;10.066;2022-09-20T08:26:36;20.80;99.90
28532;DHT22;15738;44.860;10.066;2022-09-20T08:29:21;20.90;99.90
28532;DHT22;15738;44.860;10.066;2022-09-20T08:32:07;20.90;99.90
28532;DHT22;15738;44.860;10.066;2022-09-20T08:34:53;21.10;99.90
28532;DHT22;15738;44.860;10.066;2022-09-20T08:37:40;21.20;99.90
28532;DHT22;15738;44.860;10.066;2022-09-20T08:40:28;21.10;99.90
28532;DHT22;15738;44.860;10.066;2022-09-20T08:43:15;21.20;99.90
28532;DHT22;15738;44.860;10.066;2022-09-20T08:46:12;21.10;99.90
28532;DHT22;15738;44.860;10.066;2022-09-20T08:48:59;21.40;99.90
28532;DHT22;15738;44.860;10.066;2022-09-20T08:51:48;21.50;99.90
28532;DHT22;15738;44.860;10.066;2022-09-20T08:54:34;21.60;99.90
28532;DHT22;15738;44.860;10.066;2022-09-20T08:57:20;21.00;99.90
28532;DHT22;15738;44.860;10.066;2022-09-20T09:00:09;20.80;99.90
28532;DHT22;15738;44.860;10.066;2022-09-20T09:03:06;20.30;99.90
28532;DHT22;15738;44.860;10.066;2022-09-20T09:05:55;19.90;99.90
28532;DHT22;15738;44.860;10.066;2022-09-20T09:08:43;20.10;99.90
28532;DHT22;15738;44.860;10.066;2022-09-20T09:11:33;20.50;99.90
28532;DHT22;15738;44.860;10.066;2022-09-20T09:14:27;20.00;99.90
28532;DHT22;15738;44.860;10.066;2022-09-20T09:17:32;20.10;99.90
28532;DHT22;15738;44.860;10.066;2022-09-20T09:20:21;20.00;99.90
28532;DHT22;15738;44.860;10.066;2022-09-20T09:23:07;19.80;99.90
28532;DHT22;15738;44.860;10.066;2022-09-20T09:26:04;19.70;99.90
28532;DHT22;15738;44.860;10.066;2022-09-20T09:29:16;19.90;99.90
28532;DHT22;15738;44.860;10.066;2022-09-20T09:32:20;19.70;99.90
28532;DHT22;15738;44.860;10.066;2022-09-20T09:38:17;19.80;99.90
28532;DHT22;15738;44.860;10.066;2022-09-20T09:41:05;19.90;99.90
28532;DHT22;15738;44.860;10.066;2022-09-20T09:44:00;20.20;99.90
28532;DHT22;15738;44.860;10.066;2022-09-20T09:46:46;20.20;99.90
28532;DHT22;15738;44.860;10.066;2022-09-20T09:49:34;20.30;99.90
28532;DHT22;15738;44.860;10.066;2022-09-20T09:52:20;20.50;99.90
28532;DHT22;15738;44.860;10.066;2022-09-20T09:55:13;20.50;99.90
28532;DHT22;15738;44.860;10.066;2022-09-20T10:07:43;21.10;99.90
28532;DHT22;15738;44.860;10.066;2022-09-20T10:11:15;21.10;99.90
28532;DHT22;15738;44.860;10.066;2022-09-20T10:27:21;21.60;99.90
28532;DHT22;15738;44.860;10.066;2022-09-20T10:30:21;21.40;99.90
28532;DHT22;15738;44.860;10.066;2022-09-20T10:33:27;21.10;99.90
28532;DHT22;15738;44.860;10.066;2022-09-20T10:36:24;21.30;99.90
28532;DHT22;15738;44.860;10.066;2022-09-20T10:42:50;21.10;99.90
28532;DHT22;15738;44.860;10.066;2022-09-20T10:49:30;21.00;99.90
28532;DHT22;15738;44.860;10.066;2022-09-20T10:52:55;21.40;99.90
28532;DHT22;15738;44.860;10.066;2022-09-20T11:02:05;21.30;99.90
28532;DHT22;15738;44.860;10.066;2022-09-20T11:05:22;21.30;99.90
28532;DHT22;15738;44.860;10.066;2022-09-20T11:08:19;21.40;99.90
28532;DHT22;15738;44.860;10.066;2022-09-20T11:11:20;21.30;99.90
28532;DHT22;15738;44.860;10.066;2022-09-20T11:14:17;21.50;99.90
28532;DHT22;15738;44.860;10.066;2022-09-20T11:17:14;21.60;99.90
28532;DHT22;15738;44.860;10.066;2022-09-20T11:20:14;21.70;99.90
28532;DHT22;15738;44.860;10.066;2022-09-20T11:23:09;21.60;99.90
28532;DHT22;15738;44.860;10.066;2022-09-20T11:26:03;21.70;99.90
28532;DHT22;15738;44.860;10.066;2022-09-20T11:28:56;21.50;99.90
28532;DHT22;15738;44.860;10.066;2022-09-20T11:31:47;21.60;99.90
28532;DHT22;15738;44.860;10.066;2022-09-20T11:34:45;21.40;99.90
28532;DHT22;15738;44.860;10.066;2022-09-20T11:37:59;21.70;99.90
28532;DHT22;15738;44.860;10.066;2022-09-20T11:41:04;21.80;99.90
28532;DHT22;15738;44.860;10.066;2022-09-20T11:43:55;21.70;99.90
28532;DHT22;15738;44.860;10.066;2022-09-20T11:47:04;21.90;99.90
28532;DHT22;15738;44.860;10.066;2022-09-20T11:56:31;22.30;99.90
28532;DHT22;15738;44.860;10.066;2022-09-20T11:59:39;22.40;99.90
28532;DHT22;15738;44.860;10.066;2022-09-20T12:02:51;22.20;99.90
28532;DHT22;15738;44.860;10.066;2022-09-20T12:05:39;22.20;99.90
28532;DHT22;15738;44.860;10.066;2022-09-20T12:08:39;22.00;99.90
28532;DHT22;15738;44.860;10.066;2022-09-20T12:11:32;22.20;99.90
28532;DHT22;15738;44.860;10.066;2022-09-20T12:14:22;22.20;99.90
28532;DHT22;15738;44.860;10.066;2022-09-20T12:32:41;22.40;99.90
28532;DHT22;15738;44.860;10.066;2022-09-20T12:38:32;22.30;99.90
28532;DHT22;15738;44.860;10.066;2022-09-20T12:41:19;22.30;99.90
28532;DHT22;15738;44.860;10.066;2022-09-20T12:44:31;22.20;99.90
28532;DHT22;15738;44.860;10.066;2022-09-20T12:47:25;22.30;99.90
28532;DHT22;15738;44.860;10.066;2022-09-20T12:50:13;22.40;99.90
28532;DHT22;15738;44.860;10.066;2022-09-20T12:53:18;22.30;99.90
28532;DHT22;15738;44.860;10.066;2022-09-20T12:56:22;22.40;99.90
28532;DHT22;15738;44.860;10.066;2022-09-20T12:59:24;22.50;99.90
28532;DHT22;15738;44.860;10.066;2022-09-20T13:09:06;22.60;99.90
28532;DHT22;15738;44.860;10.066;2022-09-20T13:11:54;22.70;99.90
28532;DHT22;15738;44.860;10.066;2022-09-20T13:14:41;22.60;99.90
28532;DHT22;15738;44.860;10.066;2022-09-20T13:17:28;22.80;99.90
28532;DHT22;15738;44.860;10.066;2022-09-20T13:20:19;22.70;99.90
28532;DHT22;15738;44.860;10.066;2022-09-20T13:23:19;22.70;99.90
28532;DHT22;15738;44.860;10.066;2022-09-20T13:26:09;22.90;99.90
28532;DHT22;15738;44.860;10.066;2022-09-20T13:29:02;22.80;99.90
28532;DHT22;15738;44.860;10.066;2022-09-20T13:32:24;22.90;99.90
28532;DHT22;15738;44.860;10.066;2022-09-20T13:35:25;22.90;99.90
28532;DHT22;15738;44.860;10.066;2022-09-20T13:38:17;23.00;99.90
28532;DHT22;15738;44.860;10.066;2022-09-20T13:41:08;23.10;99.90
28532;DHT22;15738;44.860;10.066;2022-09-20T13:43:57;23.10;99.90
28532;DHT22;15738;44.860;10.066;2022-09-20T13:46:44;23.00;99.90
28532;DHT22;15738;44.860;10.066;2022-09-20T13:49:31;23.10;99.90
28532;DHT22;15738;44.860;10.066;2022-09-20T13:52:25;23.10;99.90
28532;DHT22;15738;44.860;10.066;2022-09-20T13:58:25;23.20;99.90
28532;DHT22;15738;44.860;10.066;2022-09-20T14:01:31;23.20;99.90
28532;DHT22;15738;44.860;10.066;2022-09-20T14:04:24;23.30;99.90
28532;DHT22;15738;44.860;10.066;2022-09-20T14:07:13;23.30;99.90
28532;DHT22;15738;44.860;10.066;2022-09-20T14:09:59;23.20;99.90
28532;DHT22;15738;44.860;10.066;2022-09-20T14:12:46;23.20;99.90
28532;DHT22;15738;44.860;10.066;2022-09-20T14:15:37;23.10;99.90
28532;DHT22;15738;44.860;10.066;2022-09-20T14:18:23;23.10;99.90
28532;DHT22;15738;44.860;10.066;2022-09-20T14:21:10;23.10;99.90
28532;DHT22;15738;44.860;10.066;2022-09-20T14:24:04;23.00;99.90
28532;DHT22;15738;44.860;10.066;2022-09-20T14:29:52;23.20;99.90
28532;DHT22;15738;44.860;10.066;2022-09-20T14:32:59;23.20;99.90
28532;DHT22;15738;44.860;10.066;2022-09-20T14:35:48;23.00;99.90
28532;DHT22;15738;44.860;10.066;2022-09-20T14:38:35;22.90;99.90
28532;DHT22;15738;44.860;10.066;2022-09-20T14:41:36;22.90;99.90
28532;DHT22;15738;44.860;10.066;2022-09-20T14:44:41;23.00;99.90
28532;DHT22;15738;44.860;10.066;2022-09-20T14:47:34;23.00;99.90
28532;DHT22;15738;44.860;10.066;2022-09-20T14:53:23;23.00;99.90
28532;DHT22;15738;44.860;10.066;2022-09-20T14:56:16;23.00;99.90
28532;DHT22;15738;44.860;10.066;2022-09-20T14:59:05;23.00;99.90
28532;DHT22;15738;44.860;10.066;2022-09-20T15:04:54;23.00;99.90
28532;DHT22;15738;44.860;10.066;2022-09-20T15:07:40;23.00;99.90
28532;DHT22;15738;44.860;10.066;2022-09-20T15:10:26;23.00;99.90
28532;DHT22;15738;44.860;10.066;2022-09-20T15:13:12;22.90;99.90
28532;DHT22;15738;44.860;10.066;2022-09-20T15:15:58;23.00;99.90
28532;DHT22;15738;44.860;10.066;2022-09-20T15:18:44;23.00;99.90
28532;DHT22;15738;44.860;10.066;2022-09-20T15:21:29;23.00;99.90
28532;DHT22;15738;44.860;10.066;2022-09-20T15:24:15;23.00;99.90
28532;DHT22;15738;44.860;10.066;2022-09-20T15:27:03;23.00;99.90
28532;DHT22;15738;44.860;10.066;2022-09-20T15:29:49;23.00;99.90
28532;DHT22;15738;44.860;10.066;2022-09-20T15:32:36;22.90;99.90
28532;DHT22;15738;44.860;10.066;2022-09-20T15:35:22;22.90;99.90
28532;DHT22;15738;44.860;10.066;2022-09-20T15:38:08;22.80;99.90
28532;DHT22;15738;44.860;10.066;2022-09-20T15:40:59;22.80;99.90
28532;DHT22;15738;44.860;10.066;2022-09-20T15:43:45;22.60;99.90
28532;DHT22;15738;44.860;10.066;2022-09-20T15:46:34;22.60;99.90
28532;DHT22;15738;44.860;10.066;2022-09-20T15:49:20;22.60;99.90
28532;DHT22;15738;44.860;10.066;2022-09-20T15:52:06;22.60;99.90
28532;DHT22;15738;44.860;10.066;2022-09-20T15:54:52;22.60;99.90
28532;DHT22;15738;44.860;10.066;2022-09-20T15:57:38;22.60;99.90
28532;DHT22;15738;44.860;10.066;2022-09-20T16:00:25;22.50;99.90
28532;DHT22;15738;44.860;10.066;2022-09-20T16:03:11;22.50;99.90
28532;DHT22;15738;44.860;10.066;2022-09-20T16:05:58;22.50;99.90
28532;DHT22;15738;44.860;10.066;2022-09-20T16:08:49;22.60;99.90
28532;DHT22;15738;44.860;10.066;2022-09-20T16:11:35;22.50;99.90
28532;DHT22;15738;44.860;10.066;2022-09-20T16:14:21;22.50;99.90
28532;DHT22;15738;44.860;10.066;2022-09-20T16:17:07;22.40;99.90
28532;DHT22;15738;44.860;10.066;2022-09-20T16:19:54;22.40;99.90
28532;DHT22;15738;44.860;10.066;2022-09-20T16:22:40;22.40;99.90
28532;DHT22;15738;44.860;10.066;2022-09-20T16:25:26;22.30;99.90
28532;DHT22;15738;44.860;10.066;2022-09-20T16:28:12;22.30;99.90
28532;DHT22;15738;44.860;10.066;2022-09-20T16:30:59;22.20;99.90
28532;DHT22;15738;44.860;10.066;2022-09-20T16:33:45;22.20;99.90
28532;DHT22;15738;44.860;10.066;2022-09-20T16:36:31;22.20;99.90
28532;DHT22;15738;44.860;10.066;2022-09-20T16:39:18;22.20;99.90
28532;DHT22;15738;44.860;10.066;2022-09-20T16:42:05;22.10;99.90
28532;DHT22;15738;44.860;10.066;2022-09-20T16:44:51;22.00;99.90
28532;DHT22;15738;44.860;10.066;2022-09-20T16:47:37;22.00;99.90
28532;DHT22;15738;44.860;10.066;2022-09-20T16:50:25;21.90;99.90
28532;DHT22;15738;44.860;10.066;2022-09-20T16:53:10;21.90;99.90
28532;DHT22;15738;44.860;10.066;2022-09-20T16:55:56;21.90;99.90
28532;DHT22;15738;44.860;10.066;2022-09-20T16:58:41;21.90;99.90
28532;DHT22;15738;44.860;10.066;2022-09-20T17:01:29;21.90;99.90
28532;DHT22;15738;44.860;10.066;2022-09-20T17:04:17;21.80;99.90
28532;DHT22;15738;44.860;10.066;2022-09-20T17:07:03;21.80;99.90
28532;DHT22;15738;44.860;10.066;2022-09-20T17:09:49;21.70;99.90
28532;DHT22;15738;44.860;10.066;2022-09-20T17:12:35;21.60;99.90
28532;DHT22;15738;44.860;10.066;2022-09-20T17:15:26;21.60;99.90
28532;DHT22;15738;44.860;10.066;2022-09-20T17:18:12;21.50;99.90
28532;DHT22;15738;44.860;10.066;2022-09-20T17:21:04;21.50;99.90
28532;DHT22;15738;44.860;10.066;2022-09-20T17:23:53;21.40;99.90
28532;DHT22;15738;44.860;10.066;2022-09-20T17:26:45;21.40;99.90
28532;DHT22;15738;44.860;10.066;2022-09-20T17:29:31;21.30;99.90
28532;DHT22;15738;44.860;10.066;2022-09-20T17:32:16;21.20;99.90
28532;DHT22;15738;44.860;10.066;2022-09-20T17:35:04;21.20;99.90
28532;DHT22;15738;44.860;10.066;2022-09-20T17:37:50;21.20;99.90
28532;DHT22;15738;44.860;10.066;2022-09-20T17:40:35;21.20;99.90
28532;DHT22;15738;44.860;10.066;2022-09-20T17:43:21;21.10;99.90
28532;DHT22;15738;44.860;10.066;2022-09-20T17:49:00;21.00;99.90
28532;DHT22;15738;44.860;10.066;2022-09-20T17:51:51;21.00;99.90
28532;DHT22;15738;44.860;10.066;2022-09-20T17:54:37;21.00;99.90
28532;DHT22;15738;44.860;10.066;2022-09-20T17:57:24;20.90;99.90
28532;DHT22;15738;44.860;10.066;2022-09-20T18:00:10;20.80;99.90
28532;DHT22;15738;44.860;10.066;2022-09-20T18:02:56;20.80;99.90
28532;DHT22;15738;44.860;10.066;2022-09-20T18:05:49;20.70;99.90
28532;DHT22;15738;44.860;10.066;2022-09-20T18:08:34;20.70;99.90
28532;DHT22;15738;44.860;10.066;2022-09-20T18:11:23;20.70;99.90
28532;DHT22;15738;44.860;10.066;2022-09-20T18:14:11;20.60;99.90
28532;DHT22;15738;44.860;10.066;2022-09-20T18:16:59;20.60;99.90
28532;DHT22;15738;44.860;10.066;2022-09-20T18:19:46;20.50;99.90
28532;DHT22;15738;44.860;10.066;2022-09-20T18:22:32;20.30;99.90
28532;DHT22;15738;44.860;10.066;2022-09-20T18:25:18;20.20;99.90
28532;DHT22;15738;44.860;10.066;2022-09-20T18:28:04;20.20;99.90
28532;DHT22;15738;44.860;10.066;2022-09-20T18:31:02;20.00;99.90
28532;DHT22;15738;44.860;10.066;2022-09-20T18:33:53;19.90;99.90
28532;DHT22;15738;44.860;10.066;2022-09-20T18:36:40;19.80;99.90
28532;DHT22;15738;44.860;10.066;2022-09-20T18:39:27;19.70;99.90
28532;DHT22;15738;44.860;10.066;2022-09-20T18:42:14;19.60;99.90
28532;DHT22;15738;44.860;10.066;2022-09-20T18:44:59;19.50;99.90
28532;DHT22;15738;44.860;10.066;2022-09-20T18:47:45;19.50;99.90
28532;DHT22;15738;44.860;10.066;2022-09-20T18:50:31;19.40;99.90
28532;DHT22;15738;44.860;10.066;2022-09-20T18:53:19;19.30;99.90
28532;DHT22;15738;44.860;10.066;2022-09-20T18:58:59;19.10;99.90
28532;DHT22;15738;44.860;10.066;2022-09-20T19:04:57;19.00;99.90
28532;DHT22;15738;44.860;10.066;2022-09-20T19:08:14;18.90;99.90
28532;DHT22;15738;44.860;10.066;2022-09-20T19:11:08;18.80;99.90
28532;DHT22;15738;44.860;10.066;2022-09-20T19:14:11;18.70;99.90
28532;DHT22;15738;44.860;10.066;2022-09-20T19:17:00;18.70;99.90
28532;DHT22;15738;44.860;10.066;2022-09-20T19:19:53;18.60;99.90
28532;DHT22;15738;44.860;10.066;2022-09-20T19:29:20;18.50;99.90
28532;DHT22;15738;44.860;10.066;2022-09-20T19:32:14;18.50;99.90
28532;DHT22;15738;44.860;10.066;2022-09-20T19:35:02;18.50;99.90
28532;DHT22;15738;44.860;10.066;2022-09-20T19:38:12;18.40;99.90
28532;DHT22;15738;44.860;10.066;2022-09-20T19:50:41;18.10;99.90
28532;DHT22;15738;44.860;10.066;2022-09-20T19:53:30;18.10;99.90
28532;DHT22;15738;44.860;10.066;2022-09-20T19:59:07;18.00;99.90
28532;DHT22;15738;44.860;10.066;2022-09-20T20:01:54;18.00;99.90
28532;DHT22;15738;44.860;10.066;2022-09-20T20:04:42;17.90;99.90
28532;DHT22;15738;44.860;10.066;2022-09-20T20:13:40;17.80;99.90
28532;DHT22;15738;44.860;10.066;2022-09-20T20:17:18;17.80;99.90
28532;DHT22;15738;44.860;10.066;2022-09-20T20:20:30;17.70;99.90
28532;DHT22;15738;44.860;10.066;2022-09-20T20:26:24;17.60;99.90
28532;DHT22;15738;44.860;10.066;2022-09-20T20:29:10;17.70;99.90
28532;DHT22;15738;44.860;10.066;2022-09-20T20:31:56;17.50;99.90
28532;DHT22;15738;44.860;10.066;2022-09-20T20:34:42;17.50;99.90
28532;DHT22;15738;44.860;10.066;2022-09-20T20:37:28;17.50;99.90
28532;DHT22;15738;44.860;10.066;2022-09-20T20:40:16;17.40;99.90
28532;DHT22;15738;44.860;10.066;2022-09-20T20:43:03;17.40;99.90
28532;DHT22;15738;44.860;10.066;2022-09-20T20:45:50;17.40;99.90
28532;DHT22;15738;44.860;10.066;2022-09-20T20:48:36;17.40;99.90
28532;DHT22;15738;44.860;10.066;2022-09-20T20:51:22;17.40;99.90
28532;DHT22;15738;44.860;10.066;2022-09-20T20:54:08;17.40;99.90
28532;DHT22;15738;44.860;10.066;2022-09-20T20:56:54;17.30;99.90
28532;DHT22;15738;44.860;10.066;2022-09-20T20:59:40;17.20;99.90
28532;DHT22;15738;44.860;10.066;2022-09-20T21:02:25;17.30;99.90
28532;DHT22;15738;44.860;10.066;2022-09-20T21:05:11;17.30;99.90
28532;DHT22;15738;44.860;10.066;2022-09-20T21:07:59;17.20;99.90
28532;DHT22;15738;44.860;10.066;2022-09-20T21:10:45;17.20;99.90
28532;DHT22;15738;44.860;10.066;2022-09-20T21:13:31;17.20;99.90
28532;DHT22;15738;44.860;10.066;2022-09-20T21:16:22;17.10;99.90
28532;DHT22;15738;44.860;10.066;2022-09-20T21:19:10;17.10;99.90
28532;DHT22;15738;44.860;10.066;2022-09-20T21:21:59;17.10;99.90
28532;DHT22;15738;44.860;10.066;2022-09-20T21:24:45;17.10;99.90
28532;DHT22;15738;44.860;10.066;2022-09-20T21:27:31;17.10;99.90
28532;DHT22;15738;44.860;10.066;2022-09-20T21:30:20;17.00;99.90
28532;DHT22;15738;44.860;10.066;2022-09-20T21:33:05;17.00;99.90
28532;DHT22;15738;44.860;10.066;2022-09-20T21:35:51;16.90;99.90
28532;DHT22;15738;44.860;10.066;2022-09-20T21:38:43;16.90;99.90
28532;DHT22;15738;44.860;10.066;2022-09-20T21:41:31;16.90;99.90
28532;DHT22;15738;44.860;10.066;2022-09-20T21:44:16;16.80;99.90
28532;DHT22;15738;44.860;10.066;2022-09-20T21:47:04;16.80;99.90
28532;DHT22;15738;44.860;10.066;2022-09-20T21:49:50;16.70;99.90
28532;DHT22;15738;44.860;10.066;2022-09-20T21:52:37;16.70;99.90
28532;DHT22;15738;44.860;10.066;2022-09-20T21:55:23;16.70;99.90
28532;DHT22;15738;44.860;10.066;2022-09-20T21:58:09;16.70;99.90
28532;DHT22;15738;44.860;10.066;2022-09-20T22:01:04;16.60;99.90
28532;DHT22;15738;44.860;10.066;2022-09-20T22:03:53;16.60;99.90
28532;DHT22;15738;44.860;10.066;2022-09-20T22:06:42;16.60;99.90
28532;DHT22;15738;44.860;10.066;2022-09-20T22:09:28;16.60;99.90
28532;DHT22;15738;44.860;10.066;2022-09-20T22:12:13;16.50;99.90
28532;DHT22;15738;44.860;10.066;2022-09-20T22:14:59;16.50;99.90
28532;DHT22;15738;44.860;10.066;2022-09-20T22:17:44;16.40;99.90
28532;DHT22;15738;44.860;10.066;2022-09-20T22:20:30;16.30;99.90
28532;DHT22;15738;44.860;10.066;2022-09-20T22:23:16;16.30;99.90
28532;DHT22;15738;44.860;10.066;2022-09-20T22:26:10;16.30;99.90
28532;DHT22;15738;44.860;10.066;2022-09-20T22:28:57;16.30;99.90
28532;DHT22;15738;44.860;10.066;2022-09-20T22:31:45;16.30;99.90
28532;DHT22;15738;44.860;10.066;2022-09-20T22:34:31;16.20;99.90
28532;DHT22;15738;44.860;10.066;2022-09-20T22:37:17;16.30;99.90
28532;DHT22;15738;44.860;10.066;2022-09-20T22:40:03;16.20;99.90